createdAt,value
2022-12-14T00:01:22.667Z,97021.63
2022-12-14T00:03:50.310Z,97027.75
2022-12-14T00:06:24.496Z,97041.50
2022-12-14T00:08:52.055Z,97040.53
2022-12-14T00:11:22.773Z,97047.50
2022-12-14T00:13:56.905Z,97039.69
2022-12-14T00:16:24.712Z,97047.09
2022-12-14T00:18:52.647Z,97059.09
2022-12-14T00:21:19.902Z,97068.34
2022-12-14T00:23:47.662Z,97070.09
2022-12-14T00:26:15.883Z,97054.47
2022-12-14T00:28:43.431Z,97050.94
2022-12-14T00:31:10.910Z,97038.84
2022-12-14T00:33:38.113Z,97050.13
2022-12-14T00:36:06.512Z,97048.47
2022-12-14T00:38:33.462Z,97044.94
2022-12-14T00:41:00.239Z,97047.38
2022-12-14T00:43:27.395Z,97039.78
2022-12-14T00:45:54.305Z,97039.78
2022-12-14T00:48:22.289Z,97029.72
2022-12-14T00:50:50.199Z,97034.91
2022-12-14T00:53:17.624Z,97029.44
2022-12-14T00:55:48.897Z,97020.75
2022-12-14T00:58:17.646Z,97013.94
2022-12-14T01:00:44.906Z,97016.44
2022-12-14T01:03:12.788Z,97017.59
2022-12-14T01:05:40.022Z,97011.25
2022-12-14T01:08:07.418Z,97019.25
2022-12-14T01:10:34.342Z,97032.63
2022-12-14T01:13:01.239Z,97017.06
2022-12-14T01:15:28.007Z,97010.44
2022-12-14T01:17:55.095Z,97012.09
2022-12-14T01:20:22.173Z,97017.34
2022-12-14T01:22:53.825Z,97019.84
2022-12-14T01:25:21.289Z,97023.34
2022-12-14T01:27:48.186Z,97015.59
2022-12-14T01:30:15.023Z,97009.44
2022-12-14T01:32:42.080Z,97015.44
2022-12-14T01:35:09.233Z,97011.78
2022-12-14T01:37:36.129Z,97010.97
2022-12-14T01:40:03.276Z,97008.28
2022-12-14T01:42:30.138Z,96990.97
2022-12-14T01:44:58.163Z,97004.47
2022-12-14T01:47:28.812Z,97011.16
2022-12-14T01:50:14.468Z,97003.66
2022-12-14T01:52:45.994Z,97016.53
2022-12-14T01:55:25.074Z,97014.53
2022-12-14T01:57:55.297Z,97010.13
2022-12-14T02:00:22.103Z,97009.19
2022-12-14T02:02:56.316Z,97003.72
2022-12-14T02:05:24.256Z,97012.06
2022-12-14T02:07:53.089Z,96985.16
2022-12-14T02:10:21.783Z,97012.91
2022-12-14T02:12:50.196Z,97010.22
2022-12-14T02:15:17.619Z,97003.91
2022-12-14T02:17:46.531Z,97002.09
2022-12-14T02:20:14.848Z,97000.66
2022-12-14T02:22:53.842Z,96987.03
2022-12-14T02:25:39.436Z,96998.56
2022-12-14T02:28:26.542Z,97010.56
2022-12-14T02:31:13.634Z,97009.63
2022-12-14T02:33:55.701Z,97027.75
2022-12-14T02:36:29.234Z,97025.75
2022-12-14T02:38:55.995Z,97018.06
2022-12-14T02:41:41.696Z,97019.69
2022-12-14T02:44:20.891Z,97003.75
2022-12-14T02:47:06.627Z,96989.75
2022-12-14T02:49:33.584Z,96980.53
2022-12-14T02:52:23.856Z,96975.38
2022-12-14T02:55:01.681Z,96979.03
2022-12-14T02:57:35.489Z,96979.56
2022-12-14T03:00:03.091Z,96982.44
2022-12-14T03:02:31.679Z,96968.69
2022-12-14T03:04:58.825Z,96968.69
2022-12-14T03:07:34.648Z,96962.53
2022-12-14T03:10:08.283Z,96958.69
2022-12-14T03:12:36.612Z,96944.97
2022-12-14T03:15:05.164Z,96951.38
2022-12-14T03:17:34.307Z,96945.13
2022-12-14T03:20:11.902Z,96942.56
2022-12-14T03:22:38.951Z,96936.66
2022-12-14T03:25:09.116Z,96939.81
2022-12-14T03:27:41.542Z,96936.31
2022-12-14T03:30:13.175Z,96942.50
2022-12-14T03:32:42.989Z,96950.00
2022-12-14T03:35:22.397Z,96935.16
2022-12-14T03:37:56.346Z,96924.66
2022-12-14T03:40:27.262Z,96926.72
2022-12-14T03:42:59.894Z,96925.66
2022-12-14T03:45:34.569Z,96928.47
2022-12-14T03:48:27.937Z,96939.00
2022-12-14T03:51:04.225Z,96924.50
2022-12-14T03:53:41.654Z,96929.47
2022-12-14T03:56:20.423Z,96925.97
2022-12-14T03:59:05.637Z,96927.81
2022-12-14T04:01:35.393Z,96934.38
2022-12-14T04:04:34.732Z,96931.59
2022-12-14T04:07:08.185Z,96917.88
2022-12-14T04:09:44.218Z,96929.00
2022-12-14T04:12:49.442Z,96933.97
2022-12-14T04:15:55.845Z,96916.66
2022-12-14T04:18:43.977Z,96908.97
2022-12-14T04:21:10.795Z,96917.97
2022-12-14T04:24:00.572Z,96921.81
2022-12-14T04:26:30.393Z,96911.63
2022-12-14T04:29:20.203Z,96912.97
2022-12-14T04:31:51.261Z,96911.16
2022-12-14T04:34:20.279Z,96906.66
2022-12-14T04:36:50.345Z,96911.72
2022-12-14T04:39:26.905Z,96902.97
2022-12-14T04:41:56.499Z,96912.31
2022-12-14T04:44:27.017Z,96917.31
2022-12-14T04:46:54.533Z,96913.06
2022-12-14T04:49:30.316Z,96912.16
2022-12-14T04:52:05.637Z,96914.00
2022-12-14T04:54:39.282Z,96911.00
2022-12-14T04:57:18.973Z,96911.16
2022-12-14T04:59:47.987Z,96915.91
2022-12-14T05:02:22.919Z,96921.75
2022-12-14T05:04:56.335Z,96924.91
2022-12-14T05:07:23.136Z,96924.75
2022-12-14T05:09:55.507Z,96941.38
2022-12-14T05:12:39.563Z,96928.34
2022-12-14T05:15:09.552Z,96931.19
2022-12-14T05:17:37.725Z,96936.88
2022-12-14T05:20:05.245Z,96948.53
2022-12-14T05:22:32.039Z,96963.16
2022-12-14T05:24:58.715Z,96963.38
2022-12-14T05:27:25.835Z,96945.53
2022-12-14T05:29:52.937Z,96954.97
2022-12-14T05:32:20.062Z,96953.53
2022-12-14T05:34:46.936Z,96947.69
2022-12-14T05:37:18.276Z,96936.88
2022-12-14T05:39:45.327Z,96945.38
2022-12-14T05:42:12.292Z,96931.09
2022-12-14T05:44:39.031Z,96935.19
2022-12-14T05:47:05.909Z,96931.03
2022-12-14T05:49:32.699Z,96936.88
2022-12-14T05:51:59.894Z,96933.34
2022-12-14T05:54:26.750Z,96943.69
2022-12-14T05:56:53.465Z,96941.63
2022-12-14T05:59:20.285Z,96935.03
2022-12-14T06:01:49.522Z,96927.88
2022-12-14T06:04:18.029Z,96934.03
2022-12-14T06:06:44.854Z,96922.16
2022-12-14T06:09:13.722Z,96913.16
2022-12-14T06:11:41.347Z,96915.59
2022-12-14T06:14:08.753Z,96905.97
2022-12-14T06:16:35.698Z,96922.00
2022-12-14T06:19:04.643Z,96923.63
2022-12-14T06:21:32.549Z,96929.53
2022-12-14T06:23:59.712Z,96930.34
2022-12-14T06:26:30.217Z,96935.38
2022-12-14T06:28:57.655Z,96935.22
2022-12-14T06:31:29.252Z,96935.03
2022-12-14T06:33:58.764Z,96924.00
2022-12-14T06:36:28.987Z,96925.88
2022-12-14T06:38:56.441Z,96939.22
2022-12-14T06:41:24.261Z,96944.28
2022-12-14T06:43:51.449Z,96938.84
2022-12-14T06:46:19.914Z,96951.47
2022-12-14T06:48:50.620Z,96951.22
2022-12-14T06:51:17.709Z,96952.25
2022-12-14T06:53:44.765Z,96964.25
2022-12-14T06:56:12.595Z,96964.59
2022-12-14T06:58:39.395Z,96976.34
2022-12-14T07:01:11.655Z,96975.09
2022-12-14T07:03:38.844Z,96968.16
2022-12-14T07:06:06.740Z,96965.66
2022-12-14T07:08:35.127Z,96960.38
2022-12-14T07:11:02.877Z,96964.22
2022-12-14T07:13:29.957Z,96962.34
2022-12-14T07:15:58.076Z,96974.59
2022-12-14T07:18:25.735Z,96974.38
2022-12-14T07:21:18.888Z,96977.25
2022-12-14T07:23:46.674Z,96971.91
2022-12-14T07:26:17.935Z,96976.97
2022-12-14T07:28:45.909Z,96959.25
2022-12-14T07:31:14.437Z,96949.78
2022-12-14T07:33:41.425Z,96955.75
2022-12-14T07:36:09.842Z,96948.97
2022-12-14T07:38:37.892Z,96946.63
2022-12-14T07:41:11.344Z,96953.50
2022-12-14T07:43:39.396Z,96956.19
2022-12-14T07:46:07.676Z,96949.28
2022-12-14T07:48:35.047Z,96948.44
2022-12-14T07:51:09.356Z,96952.97
2022-12-14T07:53:38.421Z,96957.06
2022-12-14T07:56:06.754Z,96944.81
2022-12-14T07:58:35.017Z,96950.44
2022-12-14T08:01:12.879Z,96957.88
2022-12-14T08:03:47.612Z,96955.28
2022-12-14T08:06:15.393Z,96956.41
2022-12-14T08:08:42.236Z,96972.34
2022-12-14T08:11:09.355Z,96966.63
2022-12-14T08:13:36.615Z,96968.59
2022-12-14T08:16:07.188Z,96966.56
2022-12-14T08:18:34.527Z,96978.34
2022-12-14T08:21:01.948Z,96994.19
2022-12-14T08:23:29.374Z,96990.44
2022-12-14T08:25:57.150Z,96994.78
2022-12-14T08:28:24.281Z,97012.00
2022-12-14T08:30:51.587Z,97025.72
2022-12-14T08:33:18.562Z,97026.84
2022-12-14T08:35:45.585Z,97029.25
2022-12-14T08:38:12.484Z,97019.81
2022-12-14T08:40:39.746Z,97019.44
2022-12-14T08:43:06.790Z,97017.41
2022-12-14T08:45:33.985Z,97024.06
2022-12-14T08:48:01.923Z,97018.13
2022-12-14T08:50:32.084Z,97016.84
2022-12-14T08:52:58.937Z,97019.69
2022-12-14T08:55:29.073Z,97027.09
2022-12-14T08:57:57.138Z,97025.94
2022-12-14T09:00:24.093Z,97025.13
2022-12-14T09:02:51.471Z,97018.09
2022-12-14T09:05:18.365Z,97020.75
2022-12-14T09:07:45.377Z,97017.34
2022-12-14T09:10:13.086Z,97024.28
2022-12-14T09:12:40.345Z,97018.28
2022-12-14T09:15:07.666Z,97012.16
2022-12-14T09:17:34.923Z,97007.34
2022-12-14T09:20:01.981Z,97005.69
2022-12-14T09:22:28.837Z,97004.19
2022-12-14T09:24:55.926Z,97003.84
2022-12-14T09:27:22.799Z,96994.94
2022-12-14T09:29:50.281Z,96985.69
2022-12-14T09:32:17.118Z,96981.06
2022-12-14T09:34:44.108Z,96978.84
2022-12-14T09:37:11.012Z,96979.31
2022-12-14T09:39:37.784Z,96970.41
2022-12-14T09:42:30.958Z,96976.25
2022-12-14T09:45:07.680Z,96969.75
2022-12-14T09:47:37.383Z,96976.38
2022-12-14T09:50:05.455Z,96971.59
2022-12-14T09:52:41.787Z,96963.09
2022-12-14T09:55:17.466Z,96961.63
2022-12-14T09:57:45.189Z,96951.25
2022-12-14T10:00:19.528Z,96944.00
2022-12-14T10:02:46.840Z,96940.28
2022-12-14T10:05:29.365Z,96931.00
2022-12-14T10:08:22.316Z,96930.63
2022-12-14T10:10:54.277Z,96930.03
2022-12-14T10:13:33.024Z,96932.09
2022-12-14T10:16:06.219Z,96924.13
2022-12-14T10:19:02.468Z,96921.34
2022-12-14T10:21:38.528Z,96919.72
2022-12-14T10:24:06.524Z,96922.81
2022-12-14T10:26:38.678Z,96915.19
2022-12-14T10:29:10.866Z,96911.63
2022-12-14T10:31:44.939Z,96916.81
2022-12-14T10:34:22.423Z,96899.38
2022-12-14T10:36:54.109Z,96900.09
2022-12-14T10:39:22.995Z,96894.84
2022-12-14T10:42:01.735Z,96901.19
2022-12-14T10:44:31.431Z,96904.72
2022-12-14T10:47:01.290Z,96893.59
2022-12-14T10:49:32.742Z,96890.28
2022-12-14T10:52:05.932Z,96888.09
2022-12-14T10:54:36.448Z,96884.28
2022-12-14T10:57:03.509Z,96882.63
2022-12-14T10:59:42.279Z,96860.00
2022-12-14T11:02:17.653Z,96855.00
2022-12-14T11:04:49.569Z,96852.75
2022-12-14T11:07:17.914Z,96858.78
2022-12-14T11:09:44.946Z,96856.06
2022-12-14T11:12:14.503Z,96857.31
2022-12-14T11:14:58.839Z,96844.41
2022-12-14T11:17:32.925Z,96841.50
2022-12-14T11:20:26.027Z,96853.75
2022-12-14T11:22:57.821Z,96854.00
2022-12-14T11:25:28.502Z,96835.88
2022-12-14T11:27:55.391Z,96858.38
2022-12-14T11:30:22.291Z,96854.72
2022-12-14T11:32:49.903Z,96861.59
2022-12-14T11:35:17.934Z,96864.81
2022-12-14T11:37:45.043Z,96858.78
2022-12-14T11:40:20.218Z,96845.34
2022-12-14T11:42:49.384Z,96831.53
2022-12-14T11:45:28.883Z,96830.16
2022-12-14T11:48:22.211Z,96823.28
2022-12-14T11:50:50.055Z,96811.94
2022-12-14T11:53:18.310Z,96801.53
2022-12-14T11:55:50.971Z,96803.19
2022-12-14T11:58:20.475Z,96806.31
2022-12-14T12:00:52.721Z,96812.56
2022-12-14T12:03:23.903Z,96819.00
2022-12-14T12:05:54.565Z,96827.72
2022-12-14T12:08:26.688Z,96830.03
2022-12-14T12:11:01.837Z,96825.31
2022-12-14T12:13:31.067Z,96818.75
2022-12-14T12:16:18.177Z,96821.47
2022-12-14T12:18:49.807Z,96814.44
2022-12-14T12:21:29.543Z,96820.19
2022-12-14T12:23:59.962Z,96815.19
2022-12-14T12:26:32.696Z,96805.69
2022-12-14T12:29:19.672Z,96802.66
2022-12-14T12:31:49.465Z,96799.41
2022-12-14T12:34:22.504Z,96794.03
2022-12-14T12:37:24.153Z,96787.38
2022-12-14T12:39:37.318Z,96804.00
2022-12-14T12:42:10.016Z,96811.16
2022-12-14T12:44:56.969Z,96804.59
2022-12-14T12:47:40.083Z,96802.34
2022-12-14T12:50:17.884Z,96804.69
2022-12-14T12:52:48.082Z,96810.53
2022-12-14T12:55:17.336Z,96812.44
2022-12-14T12:57:46.157Z,96811.09
2022-12-14T13:00:20.450Z,96805.47
2022-12-14T13:02:51.177Z,96803.53
2022-12-14T13:08:14.437Z,96823.13
2022-12-14T13:11:16.861Z,96817.72
2022-12-14T13:13:34.698Z,96823.75
2022-12-14T13:16:14.859Z,96809.84
2022-12-14T13:21:37.742Z,96825.78
2022-12-14T13:24:05.466Z,96826.00
2022-12-14T13:27:03.186Z,96818.38
2022-12-14T13:29:38.072Z,96823.91
2022-12-14T13:32:15.818Z,96818.50
2022-12-14T13:35:01.534Z,96814.34
2022-12-14T13:37:44.575Z,96813.72
2022-12-14T13:40:30.247Z,96825.16
2022-12-14T13:42:56.987Z,96828.59
2022-12-14T13:45:29.004Z,96825.50
2022-12-14T13:47:57.377Z,96827.16
2022-12-14T13:50:38.507Z,96825.47
2022-12-14T13:53:23.009Z,96832.34
2022-12-14T13:55:52.541Z,96828.31
2022-12-14T13:58:22.026Z,96817.06
2022-12-14T14:00:50.726Z,96809.78
2022-12-14T14:03:36.087Z,96818.81
2022-12-14T14:06:12.239Z,96829.53
2022-12-14T14:08:43.763Z,96830.56
2022-12-14T14:11:39.365Z,96832.72
2022-12-14T14:14:15.770Z,96832.53
2022-12-14T14:16:45.038Z,96844.16
2022-12-14T14:19:11.786Z,96838.84
2022-12-14T14:21:58.926Z,96831.47
2022-12-14T14:24:27.968Z,96822.63
2022-12-14T14:27:11.122Z,96819.69
2022-12-14T14:29:44.662Z,96820.63
2022-12-14T14:32:43.779Z,96815.84
2022-12-14T14:35:29.429Z,96821.22
2022-12-14T14:38:02.233Z,96825.78
2022-12-14T14:40:51.289Z,96829.25
2022-12-14T14:43:32.487Z,96812.91
2022-12-14T14:46:02.296Z,96807.53
2022-12-14T14:48:29.621Z,96809.78
2022-12-14T14:51:22.977Z,96804.59
2022-12-14T14:54:09.773Z,96807.06
2022-12-14T14:56:37.819Z,96803.91
2022-12-14T14:59:19.819Z,96806.69
2022-12-14T15:01:48.730Z,96797.88
2022-12-14T15:04:23.254Z,96795.41
2022-12-14T15:06:51.839Z,96795.19
2022-12-14T15:09:27.704Z,96789.28
2022-12-14T15:11:56.162Z,96774.13
2022-12-14T15:14:32.476Z,96767.88
2022-12-14T15:16:59.569Z,96763.19
2022-12-14T15:19:33.856Z,96759.44
2022-12-14T15:22:03.741Z,96745.03
2022-12-14T15:24:32.982Z,96739.25
2022-12-14T15:27:00.646Z,96728.00
2022-12-14T15:29:28.349Z,96731.13
2022-12-14T15:31:59.611Z,96714.63
2022-12-14T15:34:27.426Z,96696.88
2022-12-14T15:36:54.505Z,96694.06
2022-12-14T15:39:28.610Z,96685.44
2022-12-14T15:42:02.300Z,96695.97
2022-12-14T15:44:29.354Z,96695.97
2022-12-14T15:46:56.367Z,96699.50
2022-12-14T15:49:23.477Z,96678.56
2022-12-14T15:51:51.791Z,96689.13
2022-12-14T15:54:19.928Z,96679.34
2022-12-14T15:56:51.512Z,96685.41
2022-12-14T15:59:32.049Z,96689.84
2022-12-14T16:02:17.584Z,96694.84
2022-12-14T16:04:45.391Z,96675.28
2022-12-14T16:07:42.271Z,96660.38
2022-12-14T16:10:18.303Z,96664.31
2022-12-14T16:12:49.279Z,96667.56
2022-12-14T16:15:26.429Z,96664.25
2022-12-14T16:18:01.041Z,96683.06
2022-12-14T16:20:32.301Z,96694.34
2022-12-14T16:23:08.976Z,96692.84
2022-12-14T16:25:37.923Z,96695.03
2022-12-14T16:28:23.628Z,96687.69
2022-12-14T16:31:19.985Z,96691.63
2022-12-14T16:33:50.362Z,96690.34
2022-12-14T16:36:20.881Z,96711.25
2022-12-14T16:38:56.165Z,96712.34
2022-12-14T16:41:35.400Z,96712.44
2022-12-14T16:44:03.571Z,96724.34
2022-12-14T16:46:30.564Z,96724.59
2022-12-14T16:49:20.511Z,96729.06
2022-12-14T16:52:07.465Z,96737.50
2022-12-14T16:54:35.150Z,96742.91
2022-12-14T16:57:06.815Z,96744.78
2022-12-14T16:59:39.242Z,96747.06
2022-12-14T17:02:06.374Z,96754.50
2022-12-14T17:04:35.749Z,96751.19
2022-12-14T17:07:03.211Z,96765.16
2022-12-14T17:09:33.647Z,96769.50
2022-12-14T17:12:02.862Z,96760.91
2022-12-14T17:14:29.784Z,96757.34
2022-12-14T17:17:01.515Z,96753.59
2022-12-14T17:19:38.473Z,96751.94
2022-12-14T17:22:06.738Z,96746.13
2022-12-14T17:24:36.469Z,96739.06
2022-12-14T17:27:03.839Z,96742.59
2022-12-14T17:29:31.808Z,96746.13
2022-12-14T17:32:01.414Z,96733.47
2022-12-14T17:34:29.175Z,96743.34
2022-12-14T17:36:56.648Z,96736.88
2022-12-14T17:39:24.980Z,96722.66
2022-12-14T17:41:52.052Z,96735.25
2022-12-14T17:44:19.963Z,96734.72
2022-12-14T17:46:48.845Z,96722.69
2022-12-14T17:49:16.464Z,96721.81
2022-12-14T17:51:46.260Z,96709.97
2022-12-14T17:54:17.347Z,96726.50
2022-12-14T17:56:44.543Z,96724.16
2022-12-14T17:59:11.274Z,96716.38
2022-12-14T18:01:38.690Z,96717.66
2022-12-14T18:04:05.975Z,96714.78
2022-12-14T18:06:32.797Z,96707.47
2022-12-14T18:08:59.653Z,96699.91
2022-12-14T18:11:29.735Z,96696.19
2022-12-14T18:13:56.707Z,96693.56
2022-12-14T18:16:24.331Z,96686.22
2022-12-14T18:18:54.189Z,96687.78
2022-12-14T18:21:25.822Z,96699.44
2022-12-14T18:23:52.760Z,96705.78
2022-12-14T18:26:21.315Z,96702.56
2022-12-14T18:28:48.971Z,96720.22
2022-12-14T18:31:20.304Z,96724.16
2022-12-14T18:33:47.597Z,96722.81
2022-12-14T18:36:15.279Z,96716.88
2022-12-14T18:38:42.621Z,96719.97
2022-12-14T18:41:11.591Z,96720.16
2022-12-14T18:43:43.704Z,96724.09
2022-12-14T18:46:11.001Z,96715.38
2022-12-14T18:48:37.974Z,96707.69
2022-12-14T18:51:06.325Z,96723.34
2022-12-14T18:53:33.766Z,96710.16
2022-12-14T18:56:01.996Z,96706.63
2022-12-14T18:58:29.466Z,96703.94
2022-12-14T19:00:57.590Z,96685.16
2022-12-14T19:03:24.814Z,96689.78
2022-12-14T19:05:52.196Z,96683.97
2022-12-14T19:08:18.886Z,96683.13
2022-12-14T19:10:47.788Z,96675.69
2022-12-14T19:13:19.065Z,96674.63
2022-12-14T19:15:50.603Z,96673.19
2022-12-14T19:18:17.739Z,96677.28
2022-12-14T19:20:44.512Z,96675.22
2022-12-14T19:23:17.576Z,96668.50
2022-12-14T19:25:44.860Z,96670.16
2022-12-14T19:28:30.794Z,96643.69
2022-12-14T19:30:58.909Z,96629.56
2022-12-14T19:33:27.242Z,96626.66
2022-12-14T19:35:54.653Z,96634.66
2022-12-14T19:38:21.806Z,96632.75
2022-12-14T19:40:59.872Z,96631.41
2022-12-14T19:43:27.069Z,96616.69
2022-12-14T19:45:53.900Z,96605.91
2022-12-14T19:48:20.864Z,96595.63
2022-12-14T19:50:49.446Z,96599.97
2022-12-14T19:53:21.615Z,96594.19
2022-12-14T19:55:53.567Z,96581.09
2022-12-14T19:58:22.230Z,96567.34
2022-12-14T20:00:49.758Z,96564.22
2022-12-14T20:03:17.000Z,96550.50
2022-12-14T20:05:58.784Z,96543.91
2022-12-14T20:08:26.325Z,96540.03
2022-12-14T20:10:53.443Z,96536.00
2022-12-14T20:13:21.105Z,96533.41
2022-12-14T20:15:49.480Z,96526.06
2022-12-14T20:18:16.500Z,96533.03
2022-12-14T20:20:43.528Z,96521.31
2022-12-14T20:23:10.426Z,96522.50
2022-12-14T20:25:37.226Z,96513.81
2022-12-14T20:28:04.447Z,96500.31
2022-12-14T20:30:33.230Z,96520.78
2022-12-14T20:33:00.445Z,96512.72
2022-12-14T20:35:27.331Z,96506.66
2022-12-14T20:37:54.326Z,96508.75
2022-12-14T20:40:21.304Z,96512.75
2022-12-14T20:42:49.630Z,96511.94
2022-12-14T20:45:16.878Z,96511.22
2022-12-14T20:47:44.271Z,96501.78
2022-12-14T20:50:11.350Z,96492.06
2022-12-14T20:52:38.891Z,96507.84
2022-12-14T20:55:06.439Z,96513.44
2022-12-14T20:57:33.737Z,96517.63
2022-12-14T21:00:01.161Z,96511.97
2022-12-14T21:02:28.560Z,96518.16
2022-12-14T21:04:55.975Z,96512.47
2022-12-14T21:07:26.312Z,96509.63
2022-12-14T21:09:56.952Z,96520.09
2022-12-14T21:12:24.756Z,96504.19
2022-12-14T21:15:02.299Z,96510.72
2022-12-14T21:17:30.233Z,96508.75
2022-12-14T21:19:58.024Z,96498.97
2022-12-14T21:22:26.351Z,96501.19
2022-12-14T21:25:02.972Z,96481.44
2022-12-14T21:27:31.716Z,96479.16
2022-12-14T21:29:58.584Z,96471.13
2022-12-14T21:32:26.345Z,96467.13
2022-12-14T21:34:53.300Z,96470.22
2022-12-14T21:37:20.913Z,96471.88
2022-12-14T21:39:54.410Z,96455.03
2022-12-14T21:42:25.928Z,96453.38
2022-12-14T21:44:53.652Z,96460.03
2022-12-14T21:47:24.802Z,96455.97
2022-12-14T21:49:51.720Z,96442.44
2022-12-14T21:52:20.688Z,96442.22
2022-12-14T21:54:47.618Z,96437.97
2022-12-14T21:57:34.073Z,96433.03
2022-12-14T22:00:01.538Z,96411.88
2022-12-14T22:02:29.335Z,96414.72
2022-12-14T22:04:56.445Z,96403.91
2022-12-14T22:07:24.695Z,96390.19
2022-12-14T22:09:51.434Z,96390.50
2022-12-14T22:12:18.532Z,96375.63
2022-12-14T22:14:45.305Z,96382.25
2022-12-14T22:17:13.177Z,96366.97
2022-12-14T22:19:40.044Z,96364.00
2022-12-14T22:22:06.906Z,96372.50
2022-12-14T22:24:33.712Z,96360.03
2022-12-14T22:27:00.856Z,96365.00
2022-12-14T22:29:27.764Z,96347.19
2022-12-14T22:31:54.574Z,96342.28
2022-12-14T22:34:23.163Z,96340.78
2022-12-14T22:36:51.114Z,96339.16
2022-12-14T22:39:18.422Z,96339.09
2022-12-14T22:41:45.693Z,96334.13
2022-12-14T22:44:15.331Z,96335.09
2022-12-14T22:46:42.193Z,96349.28
2022-12-14T22:49:17.387Z,96363.88
2022-12-14T22:51:44.278Z,96368.00
2022-12-14T22:54:17.317Z,96361.25
2022-12-14T22:56:46.399Z,96362.47
2022-12-14T22:59:17.478Z,96363.94
2022-12-14T23:01:49.909Z,96355.84
2022-12-14T23:04:17.774Z,96339.88
2022-12-14T23:06:45.363Z,96337.13
2022-12-14T23:09:30.473Z,96341.53
2022-12-14T23:12:21.205Z,96332.75
2022-12-14T23:15:07.244Z,96315.19
2022-12-14T23:17:52.664Z,96328.63
2022-12-14T23:20:38.267Z,96328.06
2022-12-14T23:23:27.193Z,96325.50
2022-12-14T23:26:12.860Z,96324.22
2022-12-14T23:28:58.503Z,96317.19
2022-12-14T23:31:43.614Z,96326.06
2022-12-14T23:34:28.768Z,96302.63
2022-12-14T23:37:19.750Z,96313.03
2022-12-14T23:40:05.481Z,96317.47
2022-12-14T23:42:50.537Z,96318.50
2022-12-14T23:45:35.707Z,96305.78
2022-12-14T23:48:20.673Z,96295.34
2022-12-14T23:51:05.920Z,96283.78
2022-12-14T23:53:51.181Z,96281.84
2022-12-14T23:56:36.283Z,96267.84
2022-12-14T23:59:24.956Z,96274.19
